Ce_breeze — ELSQ7 — position and weather

sailwx.info

Track history (hours):
 
Tides and Currents Weather Stations Pressure Air Temp Water Temp Dewpoint Dewpoint Depression Visibility Wind Speed Wind Dir Waves Ship Positions

Ce_breeze

Last reported at 2015-Apr-19 12:34 UTC. Time now 2015-Apr-19 12:42 UTC.
Position N 37°51' E 023°31'.

Length 240 m; draft 8 m.

Type: Tanker. MMSI: 636010400.

Date/timePositionNaut miles runAvg speedWind from/ knotsBaromVisibWave heightAir tempDewpointWater temp
2015-Apr-19 12:34N 37°51' E 023°31'0 0.2
2015-Apr-19 11:34N 37°51' E 023°31'0 0.2
2015-Apr-19 10:34N 37°51' E 023°32'0 0.0
2015-Apr-19 09:31N 37°51' E 023°32'0 0.1
2015-Apr-19 08:34N 37°51' E 023°32'0 0.0
2015-Apr-19 07:34N 37°51' E 023°32'0 0.0
2015-Apr-19 06:31N 37°51' E 023°32'0 0.0
2015-Apr-19 05:22N 37°51' E 023°32'0 0.0
2015-Apr-19 04:22N 37°51' E 023°32'0 0.0
2015-Apr-19 03:31N 37°51' E 023°32'0 0.3
2015-Apr-19 02:33N 37°51' E 023°32'6 6.2
2015-Apr-19 01:33N 37°50' E 023°40'1110.6
2015-Apr-19 00:33N 37°40' E 023°45'1512.1
2015-Apr-18 23:17N 37°26' E 023°52'2612.4
2015-Apr-18 21:11N 37°02' E 024°03'711.5
2015-Apr-18 20:33N 36°54' E 024°02'1312.2
2015-Apr-18 19:30N 36°43' E 023°54'1612.1
2015-Apr-18 18:09N 36°33' E 023°37'238 9.7
2015-Apr-17 17:33N 38°60' E 019°40'1110.9
2015-Apr-17 16:33N 39°10' E 019°35'1111.1
2015-Apr-17 15:33N 39°20' E 019°29'1211.1
2015-Apr-17 14:27N 39°31' E 019°23'1011.0
2015-Apr-17 13:33N 39°40' E 019°18'1110.8
2015-Apr-17 12:33N 39°50' E 019°13'1110.7
2015-Apr-17 11:33N 40°00' E 019°07'1010.4
2015-Apr-17 10:33N 40°10' E 019°02'  
2015-Apr-11 11:31N 40°18' E 018°58'1312.4
2015-Apr-11 10:30N 40°06' E 019°04'1212.2
2015-Apr-11 09:33N 39°56' E 019°10'1212.3
2015-Apr-11 08:33N 39°44' E 019°16'1512.6
2015-Apr-11 07:21N 39°30' E 019°24'1112.6
2015-Apr-11 06:30N 39°21' E 019°29'1212.3
2015-Apr-11 05:33N 39°10' E 019°35'31010.5
2015-Apr-10 00:11N 35°58' E 024°42'710.7
2015-Apr-09 23:33N 35°57' E 024°50'1111.5
2015-Apr-09 22:33N 35°56' E 025°04'1111.5
2015-Apr-09 21:33N 35°56' E 025°19'1211.3
2015-Apr-09 20:28N 35°54' E 025°33'1010.2
2015-Apr-09 19:32N 35°49' E 025°43'  
Track history (hours):
 
Tides and Currents Weather Stations Pressure Air Temp Water Temp Dewpoint Dewpoint Depression Visibility Wind Speed Wind Dir Waves Ship Positions

Ce_breeze

Last reported at 2015-Apr-19 12:34 UTC. Time now 2015-Apr-19 12:42 UTC.
Position N 37°51' E 023°31'.

Length 240 m; draft 8 m.

Type: Tanker. MMSI: 636010400.

Date/timePositionNaut miles runAvg speedWind from/ knotsBaromVisibWave heightAir tempDewpointWater temp
2015-Apr-19 12:34N 37°51' E 023°31'0 0.2
2015-Apr-19 11:34N 37°51' E 023°31'0 0.2
2015-Apr-19 10:34N 37°51' E 023°32'0 0.0
2015-Apr-19 09:31N 37°51' E 023°32'0 0.1
2015-Apr-19 08:34N 37°51' E 023°32'0 0.0
2015-Apr-19 07:34N 37°51' E 023°32'0 0.0
2015-Apr-19 06:31N 37°51' E 023°32'0 0.0
2015-Apr-19 05:22N 37°51' E 023°32'0 0.0
2015-Apr-19 04:22N 37°51' E 023°32'0 0.0
2015-Apr-19 03:31N 37°51' E 023°32'0 0.3
2015-Apr-19 02:33N 37°51' E 023°32'6 6.2
2015-Apr-19 01:33N 37°50' E 023°40'1110.6
2015-Apr-19 00:33N 37°40' E 023°45'1512.1
2015-Apr-18 23:17N 37°26' E 023°52'2612.4
2015-Apr-18 21:11N 37°02' E 024°03'711.5
2015-Apr-18 20:33N 36°54' E 024°02'1312.2
2015-Apr-18 19:30N 36°43' E 023°54'1612.1
2015-Apr-18 18:09N 36°33' E 023°37'238 9.7
2015-Apr-17 17:33N 38°60' E 019°40'1110.9
2015-Apr-17 16:33N 39°10' E 019°35'1111.1
2015-Apr-17 15:33N 39°20' E 019°29'1211.1
2015-Apr-17 14:27N 39°31' E 019°23'1011.0
2015-Apr-17 13:33N 39°40' E 019°18'1110.8
2015-Apr-17 12:33N 39°50' E 019°13'1110.7
2015-Apr-17 11:33N 40°00' E 019°07'1010.4
2015-Apr-17 10:33N 40°10' E 019°02'  
2015-Apr-11 11:31N 40°18' E 018°58'1312.4
2015-Apr-11 10:30N 40°06' E 019°04'1212.2
2015-Apr-11 09:33N 39°56' E 019°10'1212.3
2015-Apr-11 08:33N 39°44' E 019°16'1512.6
2015-Apr-11 07:21N 39°30' E 019°24'1112.6
2015-Apr-11 06:30N 39°21' E 019°29'1212.3
2015-Apr-11 05:33N 39°10' E 019°35'31010.5
2015-Apr-10 00:11N 35°58' E 024°42'710.7
2015-Apr-09 23:33N 35°57' E 024°50'1111.5
2015-Apr-09 22:33N 35°56' E 025°04'1111.5
2015-Apr-09 21:33N 35°56' E 025°19'1211.3
2015-Apr-09 20:28N 35°54' E 025°33'1010.2
2015-Apr-09 19:32N 35°49' E 025°43'  

Dump ship's entire track history